Time;durP1;ratioP1;P1;durP2;ratioP2;P2;SDS_P1;SDS_P2;PMS_P1;PMS_P2;Temp;Humidity;BMP_temperature;BMP_pressure;BME280_temperature;BME280_humidity;BME280_pressure;Samples;Min_cycle;Max_cycle;Signal;HPM_P1;HPM_P2
2022/01/12 00:02:45;;;;;;;15.80;9.40;;;;;;;0.29;95.87;101151.53;2010186;78;21561;-73
2022/01/12 00:05:48;;;;;;;14.39;8.66;;;;;;;0.29;95.98;101150.66;2012636;80;20355;-73
2022/01/12 00:08:51;;;;;;;14.16;7.89;;;;;;;0.26;95.70;101148.78;2012615;80;20900;-73
2022/01/12 00:11:53;;;;;;;12.98;7.73;;;;;;;0.25;95.85;101141.03;2012555;80;20303;-73
2022/01/12 00:14:56;;;;;;;11.66;7.64;;;;;;;0.25;95.96;101141.03;2012832;80;20277;-73
2022/01/12 00:17:58;;;;;;;13.26;8.17;;;;;;;0.23;95.73;101155.38;2012833;78;24896;-73
2022/01/12 00:21:02;;;;;;;17.01;8.19;;;;;;;0.23;96.01;101163.03;2011216;80;20221;-73
2022/01/12 00:24:05;;;;;;;11.46;7.71;;;;;;;0.22;95.92;101164.69;2011212;80;20172;-73
2022/01/12 00:33:52;;;;;;;9.20;7.16;;;;;;;0.22;95.82;101177.47;2080025;69;20632;-73
2022/01/12 00:36:55;;;;;;;13.72;6.97;;;;;;;0.21;95.83;101169.72;2017839;80;20672;-73
2022/01/12 00:39:58;;;;;;;10.70;6.66;;;;;;;0.20;95.83;101171.38;2017150;80;20209;-73
2022/01/12 00:43:02;;;;;;;8.46;5.85;;;;;;;0.19;95.79;101184.94;2018019;80;20251;-73
2022/01/12 00:46:04;;;;;;;10.75;6.26;;;;;;;0.22;96.03;101192.81;2015144;78;20382;-73
2022/01/12 00:49:07;;;;;;;9.89;6.64;;;;;;;0.22;95.81;101187.69;2017535;80;20328;-73
2022/01/12 00:52:10;;;;;;;9.06;6.49;;;;;;;0.23;95.91;101179.25;2017165;80;20194;-73
2022/01/12 00:55:12;;;;;;;10.30;6.40;;;;;;;0.23;95.75;101175.81;2017741;80;20237;-73
2022/01/12 00:58:15;;;;;;;11.27;6.49;;;;;;;0.23;95.76;101178.34;2017711;80;20356;-73
2022/01/12 01:01:19;;;;;;;13.96;6.58;;;;;;;0.19;95.45;101168.72;2016292;78;21707;-73
2022/01/12 01:04:22;;;;;;;10.71;5.70;;;;;;;0.16;95.56;101164.28;2018216;80;20255;-73
2022/01/12 01:07:25;;;;;;;11.36;6.34;;;;;;;0.16;95.50;101168.50;2017770;80;20207;-73
2022/01/12 01:10:42;;;;;;;10.39;6.60;;;;;;;0.04;95.01;101158.38;2017868;80;20317;-73
2022/01/12 01:14:10;;;;;;;9.42;6.21;;;;;;;-0.04;95.04;101151.88;2018370;80;20482;-73
2022/01/12 01:27:18;;;;;;;5.80;4.44;;;;;;;-0.41;95.05;101167.28;2017438;80;20229;-73
2022/01/12 01:30:21;;;;;;;7.47;4.68;;;;;;;-0.44;95.22;101164.53;2015892;77;22349;-73
2022/01/12 01:33:26;;;;;;;5.93;4.36;;;;;;;-0.43;95.42;101165.41;2018442;80;20952;-73
2022/01/12 01:36:29;;;;;;;5.57;4.08;;;;;;;-0.46;95.15;101176.31;2018361;80;20180;-72
2022/01/12 01:39:31;;;;;;;4.93;3.66;;;;;;;-0.48;95.07;101175.31;2017645;80;20236;-73
2022/01/12 01:43:19;;;;;;;4.03;3.41;;;;;;;-0.53;94.86;101175.78;2017371;80;20183;-73
2022/01/12 01:56:07;;;;;;;6.97;3.82;;;;;;;-0.81;94.72;101175.53;2017317;80;20278;-73
2022/01/12 01:59:10;;;;;;;5.52;3.82;;;;;;;-0.87;94.61;101178.56;2017726;80;20195;-73
2022/01/12 02:02:14;;;;;;;4.73;3.70;;;;;;;-0.91;94.54;101184.22;2016506;77;20571;-73
2022/01/12 02:05:16;;;;;;;3.69;3.29;;;;;;;-0.98;94.55;101182.91;2017847;80;20717;-73
2022/01/12 02:08:19;;;;;;;8.53;3.58;;;;;;;-1.02;94.56;101185.13;2017379;80;20654;-73
2022/01/12 02:11:26;;;;;;;4.34;3.39;;;;;;;-1.06;94.72;101183.16;2017748;80;20213;-73
2022/01/12 02:14:29;;;;;;;6.52;4.04;;;;;;;-1.09;94.78;101185.47;2018236;80;20171;-73
2022/01/12 02:17:38;;;;;;;5.90;3.36;;;;;;;-1.12;94.82;101183.59;2015435;77;22513;-73
2022/01/12 02:40:54;;;;;;;6.48;4.42;;;;;;;-1.41;94.89;101214.66;2017735;80;20240;-73
2022/01/12 02:50:39;;;;;;;6.21;4.09;;;;;;;-1.46;94.84;101193.03;2017535;80;20205;-72
2022/01/12 02:50:56;;;;;;;9.08;4.79;;;;;;;-1.55;94.67;101195.81;2017262;80;20183;-72
2022/01/12 02:53:59;;;;;;;16.58;7.87;;;;;;;-1.65;94.39;101190.81;2017462;80;20183;-72
2022/01/12 02:57:01;;;;;;;13.42;7.63;;;;;;;-1.69;94.35;101191.38;2017631;80;20286;-72
2022/01/12 03:00:08;;;;;;;13.48;7.69;;;;;;;-1.72;94.71;101192.81;2015909;80;20194;-72
2022/01/12 03:03:20;;;;;;;15.33;7.67;;;;;;;-1.74;94.82;101202.00;2018272;78;20235;-72
2022/01/12 03:06:28;;;;;;;16.11;8.28;;;;;;;-1.79;94.89;101209.31;2018261;80;20286;-72
2022/01/12 03:09:31;;;;;;;13.48;7.74;;;;;;;-1.80;95.09;101224.44;2018442;80;20176;-72
2022/01/12 03:12:38;;;;;;;11.24;6.64;;;;;;;-1.84;95.06;101224.22;2018669;80;20763;-72
2022/01/12 03:15:41;;;;;;;14.79;7.89;;;;;;;-1.90;94.87;101223.78;2016557;77;20269;-72
2022/01/12 03:18:50;;;;;;;14.03;7.41;;;;;;;-1.89;94.91;101225.56;2018841;80;20176;-72
2022/01/12 03:21:52;;;;;;;11.49;6.90;;;;;;;-1.92;94.79;101211.72;2018523;80;20176;-72
2022/01/12 03:24:55;;;;;;;13.66;6.96;;;;;;;-1.95;94.63;101201.31;2019123;80;20192;-72
2022/01/12 03:28:01;;;;;;;10.30;6.51;;;;;;;-2.00;94.51;101198.41;2019614;80;20199;-72
2022/01/12 03:31:14;;;;;;;10.01;6.72;;;;;;;-2.00;94.69;101206.03;2017500;77;21261;-72
2022/01/12 03:34:31;;;;;;;11.29;6.34;;;;;;;-1.98;94.96;101203.59;2015131;80;20194;-72
2022/01/12 03:40:42;;;;;;;14.59;6.35;;;;;;;-2.05;95.03;101219.19;2019484;80;20201;-72
2022/01/12 03:43:45;;;;;;;10.58;6.04;;;;;;;-2.06;95.06;101218.31;2018671;80;20220;-72
2022/01/12 03:46:51;;;;;;;11.27;6.54;;;;;;;-2.09;95.06;101224.84;2017032;77;23077;-72
2022/01/12 03:49:53;;;;;;;8.92;5.89;;;;;;;-2.09;95.32;101230.81;2019871;80;20628;-72
2022/01/12 03:52:57;;;;;;;10.76;6.56;;;;;;;-2.09;95.41;101243.53;2018362;80;20199;-72
2022/01/12 03:55:59;;;;;;;9.51;6.68;;;;;;;-2.08;95.39;101270.75;2023320;80;20171;-72
2022/01/12 03:59:03;;;;;;;10.59;6.79;;;;;;;-2.11;95.32;101275.63;2019639;80;20223;-71
2022/01/12 04:02:06;;;;;;;10.34;6.48;;;;;;;-2.09;95.30;101266.44;2017329;77;21138;-72
2022/01/12 04:05:28;;;;;;;10.46;5.68;;;;;;;-2.09;95.29;101263.91;2017983;80;20252;-72
2022/01/12 04:08:30;;;;;;;10.28;5.94;;;;;;;-2.08;95.35;101270.75;2017992;80;20459;-72
2022/01/12 04:11:33;;;;;;;10.07;5.98;;;;;;;-2.13;95.13;101262.78;2017368;80;20847;-72
2022/01/12 04:14:35;;;;;;;11.07;5.73;;;;;;;-2.15;95.10;101259.25;2018156;80;20241;-71
2022/01/12 04:17:38;;;;;;;8.96;6.49;;;;;;;-2.16;95.06;101265.06;2015962;77;22225;-71
2022/01/12 04:20:49;;;;;;;10.81;6.60;;;;;;;-2.15;95.20;101263.44;2017746;80;20256;-71
2022/01/12 04:23:52;;;;;;;10.99;6.44;;;;;;;-2.17;95.21;101263.28;2018193;80;20633;-71
2022/01/12 04:26:55;;;;;;;11.27;6.71;;;;;;;-2.17;95.17;101268.38;2018038;80;20721;-72
2022/01/12 04:29:57;;;;;;;11.39;6.97;;;;;;;-2.21;95.20;101265.50;2018303;80;20176;-71
2022/01/12 04:33:00;;;;;;;10.10;6.54;;;;;;;-2.20;95.51;101287.63;2018948;77;25241;-69
2022/01/12 04:36:05;;;;;;;11.11;6.54;;;;;;;-2.17;95.65;101295.47;2018529;80;20263;-69
2022/01/12 04:39:07;;;;;;;9.67;6.70;;;;;;;-2.16;95.85;101280.31;2017898;80;20196;-69
2022/01/12 04:42:10;;;;;;;10.68;6.57;;;;;;;-2.19;95.59;101279.22;2017904;80;20443;-69
2022/01/12 04:46:09;;;;;;;11.67;6.59;;;;;;;-2.18;95.63;101281.88;2016174;80;20709;-69
2022/01/12 04:49:19;;;;;;;12.26;7.16;;;;;;;-2.18;95.58;101281.88;2015981;80;20655;-69
2022/01/12 04:52:16;;;;;;;17.30;7.57;;;;;;;-2.17;95.84;101287.84;2017899;80;20317;-69
2022/01/12 04:55:24;;;;;;;13.68;7.13;;;;;;;-2.16;95.92;101272.69;2017741;80;20765;-69
2022/01/12 04:58:27;;;;;;;11.00;6.10;;;;;;;-2.16;95.88;101276.91;2018062;80;20686;-69
2022/01/12 05:01:36;;;;;;;11.73;6.59;;;;;;;-2.19;95.60;101279.22;2015621;77;21022;-69
2022/01/12 05:08:15;;;;;;;10.42;6.73;;;;;;;-2.25;95.40;101271.13;2017553;80;20727;-68
2022/01/12 05:14:44;;;;;;;10.84;5.76;;;;;;;-2.32;95.24;101271.44;2017674;80;20209;-69
2022/01/12 05:17:46;;;;;;;8.61;5.41;;;;;;;-2.34;95.24;101273.84;2015727;77;20225;-69
2022/01/12 05:20:49;;;;;;;8.83;5.34;;;;;;;-2.40;95.04;101277.56;2017354;80;20233;-68
2022/01/12 05:23:53;;;;;;;8.40;5.73;;;;;;;-2.42;95.29;101272.38;2017127;80;20209;-68
2022/01/12 05:26:55;;;;;;;9.19;5.00;;;;;;;-2.43;95.30;101275.69;2018008;80;20222;-68
2022/01/12 05:29:58;;;;;;;9.31;5.40;;;;;;;-2.43;95.38;101275.69;2017592;80;20262;-68
2022/01/12 05:33:00;;;;;;;9.43;5.54;;;;;;;-2.44;95.31;101277.34;2015262;77;22228;-68
2022/01/12 05:36:06;;;;;;;8.27;5.23;;;;;;;-2.45;95.24;101279.78;2017893;80;20681;-69
2022/01/12 05:39:09;;;;;;;13.99;5.63;;;;;;;-2.50;94.89;101276.00;2016725;80;20241;-68
2022/01/12 05:42:11;;;;;;;10.31;5.57;;;;;;;-2.54;95.06;101274.84;2017180;80;20301;-68
2022/01/12 05:45:15;;;;;;;9.86;5.70;;;;;;;-2.53;95.09;101281.69;2015715;80;20168;-68
2022/01/12 05:51:21;;;;;;;8.40;5.36;;;;;;;-2.62;94.80;101263.19;2018088;80;20253;-68
2022/01/12 05:54:23;;;;;;;9.16;5.58;;;;;;;-2.64;94.94;101271.47;2017053;80;20197;-68
2022/01/12 05:57:26;;;;;;;7.83;5.77;;;;;;;-2.65;95.16;101268.06;2017918;80;20319;-68
2022/01/12 06:00:29;;;;;;;8.02;5.49;;;;;;;-2.63;95.23;101263.09;2015441;80;20381;-68
2022/01/12 06:03:32;;;;;;;8.02;5.49;;;;;;;-2.62;95.23;101282.66;2020547;80;20208;-68
2022/01/12 06:06:35;;;;;;;9.50;5.94;;;;;;;-2.65;95.20;101279.88;2017148;80;20221;-68
2022/01/12 06:09:37;;;;;;;9.61;5.68;;;;;;;-2.65;95.12;101278.22;2017188;80;20265;-68
2022/01/12 06:12:41;;;;;;;8.88;5.07;;;;;;;-2.66;95.02;101275.56;2015284;80;20201;-68
2022/01/12 06:15:43;;;;;;;10.77;6.28;;;;;;;-2.68;94.97;101283.06;2015565;77;22089;-68
2022/01/12 06:18:46;;;;;;;11.22;6.24;;;;;;;-2.70;94.88;101283.69;2017051;80;20195;-68
2022/01/12 06:21:49;;;;;;;7.67;5.80;;;;;;;-2.71;94.85;101294.63;2017087;80;20205;-68
2022/01/12 06:24:51;;;;;;;7.86;5.96;;;;;;;-2.75;94.80;101288.41;2017663;80;20302;-68
2022/01/12 06:28:09;;;;;;;6.17;5.08;;;;;;;-2.75;94.83;101285.88;2017466;80;20164;-68
2022/01/12 06:31:17;;;;;;;10.62;6.50;;;;;;;-2.77;94.72;101287.41;2015651;78;21745;-68
2022/01/12 06:34:19;;;;;;;8.69;5.67;;;;;;;-2.83;94.60;101294.56;2017414;80;20172;-67
2022/01/12 06:37:22;;;;;;;9.52;5.26;;;;;;;-2.83;94.63;101289.50;2015763;80;20828;-67
2022/01/12 06:40:25;;;;;;;8.67;6.19;;;;;;;-2.88;94.38;101294.19;2016954;80;20289;-67
2022/01/12 06:43:28;;;;;;;8.81;5.42;;;;;;;-2.94;94.37;101298.78;2016927;80;20224;-67
2022/01/12 06:46:32;;;;;;;10.10;6.50;;;;;;;-2.92;94.56;101291.28;2015653;77;20201;-67
2022/01/12 06:49:34;;;;;;;11.37;6.59;;;;;;;-2.95;94.41;101306.28;2016771;80;20290;-67
2022/01/12 06:52:37;;;;;;;11.48;6.62;;;;;;;-2.93;94.48;101312.38;2018345;80;20686;-67
2022/01/12 06:55:40;;;;;;;10.69;5.79;;;;;;;-2.95;94.32;101334.25;2018301;80;21236;-67
2022/01/12 06:58:45;;;;;;;8.07;6.30;;;;;;;-2.95;94.58;101326.63;2018436;80;20792;-67
2022/01/12 07:01:48;;;;;;;12.52;6.33;;;;;;;-2.95;94.63;101329.16;2017200;77;20203;-68
2022/01/12 07:04:51;;;;;;;8.84;5.66;;;;;;;-2.96;94.78;101332.47;2019154;80;21238;-67
2022/01/12 07:07:53;;;;;;;9.60;6.04;;;;;;;-2.95;94.68;101344.41;2018562;80;20180;-67
2022/01/12 07:10:56;;;;;;;9.37;5.96;;;;;;;-2.94;94.66;101343.66;2014514;80;20874;-68
2022/01/12 07:13:59;;;;;;;10.10;6.26;;;;;;;-2.94;94.71;101352.16;2018518;80;20160;-67
2022/01/12 07:17:01;;;;;;;10.82;6.36;;;;;;;-2.93;94.70;101363.22;2013319;77;21236;-68
2022/01/12 07:20:05;;;;;;;11.01;6.92;;;;;;;-2.92;94.71;101370.06;2018595;80;20171;-68
2022/01/12 07:23:09;;;;;;;11.01;6.03;;;;;;;-2.88;94.86;101382.25;2017142;80;20294;-70
2022/01/12 07:26:11;;;;;;;9.52;6.10;;;;;;;-2.87;94.76;101378.94;2016898;80;20209;-67
2022/01/12 07:29:14;;;;;;;10.04;6.19;;;;;;;-2.88;94.74;101385.66;2017366;80;20185;-68
2022/01/12 07:32:17;;;;;;;9.32;6.01;;;;;;;-2.87;94.74;101389.09;2016301;78;21151;-68
2022/01/12 07:35:19;;;;;;;10.29;6.11;;;;;;;-2.90;94.58;101409.19;2018325;80;20200;-68
2022/01/12 07:38:22;;;;;;;9.91;6.16;;;;;;;-2.95;94.38;101418.09;2017411;80;20360;-68
2022/01/12 07:41:25;;;;;;;9.73;6.27;;;;;;;-2.96;94.53;101418.88;2018560;80;20181;-67
2022/01/12 07:44:28;;;;;;;10.21;7.00;;;;;;;-2.93;94.61;101416.56;2017316;80;20172;-67
2022/01/12 07:47:31;;;;;;;8.76;6.22;;;;;;;-2.92;94.50;101425.97;2015890;78;21171;-67
2022/01/12 07:50:34;;;;;;;11.57;6.54;;;;;;;-2.88;94.67;101435.63;2018220;80;21209;-69
2022/01/12 07:53:36;;;;;;;12.67;6.94;;;;;;;-2.85;94.65;101441.88;2018375;80;20203;-70
2022/01/12 07:56:39;;;;;;;10.73;6.63;;;;;;;-2.87;94.53;101451.03;2018652;80;20303;-67
2022/01/12 07:59:42;;;;;;;11.16;6.44;;;;;;;-2.80;94.69;101454.94;2017564;80;20681;-69
2022/01/12 08:02:45;;;;;;;10.59;6.58;;;;;;;-2.79;94.57;101452.53;2015383;77;21322;-68
2022/01/12 08:05:50;;;;;;;15.13;7.56;;;;;;;-2.79;94.46;101462.69;2020596;80;20260;-68
2022/01/12 08:08:53;;;;;;;16.64;7.89;;;;;;;-2.72;94.60;101473.34;2017649;80;20247;-69
2022/01/12 08:11:56;;;;;;;15.72;7.74;;;;;;;-2.66;94.75;101462.03;2017329;80;20267;-68
2022/01/12 08:14:59;;;;;;;11.57;7.11;;;;;;;-2.57;94.83;101457.69;2017604;80;20298;-68
2022/01/12 08:18:02;;;;;;;12.11;7.62;;;;;;;-2.49;94.88;101463.41;2009899;78;22716;-68
2022/01/12 08:21:06;;;;;;;13.94;7.60;;;;;;;-2.37;95.08;101461.81;2008363;80;20184;-69
2022/01/12 08:24:11;;;;;;;16.43;7.81;;;;;;;-2.26;95.24;101467.78;2011817;80;20196;-69
2022/01/12 08:27:33;;;;;;;17.22;7.54;;;;;;;-2.14;95.47;101461.13;2010671;80;20180;-69
2022/01/12 08:30:36;;;;;;;11.28;7.48;;;;;;;-1.98;95.67;101446.28;2006837;77;20760;-69
2022/01/12 08:33:39;;;;;;;15.22;7.76;;;;;;;-1.83;95.78;101447.47;2015976;80;20267;-69
2022/01/12 08:36:41;;;;;;;14.76;7.36;;;;;;;-1.63;96.01;101441.38;2016340;80;20179;-69
2022/01/12 08:39:44;;;;;;;18.71;10.22;;;;;;;-1.45;95.94;101439.34;2016510;80;20191;-69
2022/01/12 08:42:47;;;;;;;25.96;14.42;;;;;;;-1.23;95.57;101435.13;2015401;80;20213;-69
2022/01/12 08:45:52;;;;;;;17.89;11.48;;;;;;;-1.00;95.13;101434.28;2014752;77;21902;-69
2022/01/12 08:48:55;;;;;;;17.81;9.03;;;;;;;-0.73;94.63;101430.31;2016420;80;20176;-69
2022/01/12 08:51:58;;;;;;;21.77;11.51;;;;;;;-0.46;93.78;101418.69;2015429;80;20243;-69
2022/01/12 08:55:01;;;;;;;16.73;10.43;;;;;;;-0.20;93.01;101412.00;2016034;80;20171;-69
2022/01/12 08:58:04;;;;;;;19.91;10.46;;;;;;;0.04;92.20;101407.75;2016358;80;20780;-69
2022/01/12 09:01:06;;;;;;;20.46;10.77;;;;;;;0.20;91.26;101415.72;2014337;77;22533;-69
2022/01/12 09:04:09;;;;;;;14.86;9.52;;;;;;;0.38;90.31;101427.19;2015045;80;20306;-69
2022/01/12 09:07:12;;;;;;;12.30;7.60;;;;;;;0.62;89.55;101450.09;2014577;80;20917;-69
2022/01/12 09:10:15;;;;;;;13.93;7.19;;;;;;;0.84;88.36;101448.19;2015443;80;20211;-69
2022/01/12 09:13:18;;;;;;;14.90;8.40;;;;;;;1.02;87.24;101446.88;2015028;80;20209;-69
2022/01/12 09:16:20;;;;;;;11.80;7.76;;;;;;;1.19;86.67;101445.44;2012407;77;20865;-69
2022/01/12 09:19:24;;;;;;;13.64;8.65;;;;;;;1.34;85.68;101460.91;2014592;80;20359;-69
2022/01/12 09:22:26;;;;;;;13.93;8.77;;;;;;;1.50;85.16;101458.56;2014587;80;20378;-70
2022/01/12 09:25:33;;;;;;;15.29;9.13;;;;;;;1.60;84.46;101466.03;2014102;80;20321;-69
2022/01/12 09:28:36;;;;;;;16.56;9.13;;;;;;;1.67;84.40;101463.09;2014512;80;20812;-69
2022/01/12 09:31:38;;;;;;;15.71;10.13;;;;;;;1.84;84.00;101455.63;2014144;77;22415;-69
2022/01/12 09:34:41;;;;;;;13.94;8.82;;;;;;;2.03;83.47;101463.69;2014840;80;20313;-70
2022/01/12 09:37:44;;;;;;;15.94;8.74;;;;;;;2.23;82.74;101464.91;2014588;80;20317;-70
2022/01/12 09:40:50;;;;;;;15.34;8.50;;;;;;;2.33;81.86;101473.25;2013024;80;20374;-70
2022/01/12 09:43:54;;;;;;;14.50;8.99;;;;;;;2.49;81.51;101475.09;2012525;80;20394;-71
2022/01/12 09:46:59;;;;;;;17.83;8.94;;;;;;;2.67;81.08;101481.34;2011416;78;20957;-70
2022/01/12 09:50:02;;;;;;;14.80;8.46;;;;;;;2.84;81.17;101489.16;2012700;80;20313;-73
2022/01/12 09:53:05;;;;;;;12.61;8.48;;;;;;;3.01;80.78;101501.31;2012144;80;21108;-73
2022/01/12 09:56:17;;;;;;;10.40;7.60;;;;;;;3.17;79.95;101510.81;2011443;80;20370;-73
2022/01/12 09:59:22;;;;;;;11.85;7.24;;;;;;;3.34;79.05;101516.16;2011793;80;20432;-73
2022/01/12 10:02:24;;;;;;;10.18;7.32;;;;;;;3.41;77.76;101514.84;2010924;78;22742;-73
2022/01/12 10:05:31;;;;;;;10.11;7.25;;;;;;;3.50;77.37;101524.75;2015841;80;20378;-73
2022/01/12 10:08:35;;;;;;;9.59;6.64;;;;;;;3.57;77.38;101512.34;2015843;80;20394;-73
2022/01/12 10:11:56;;;;;;;11.11;6.93;;;;;;;3.59;76.58;101515.00;2015467;80;20451;-73
2022/01/12 10:15:01;;;;;;;13.39;7.75;;;;;;;3.57;76.71;101509.78;2014870;80;20767;-73
2022/01/12 10:18:04;;;;;;;12.40;7.44;;;;;;;3.59;76.86;101518.50;2014610;77;23901;-73
2022/01/12 10:21:07;;;;;;;12.19;7.99;;;;;;;3.54;76.41;101519.88;2015376;80;20417;-73
2022/01/12 10:24:14;;;;;;;11.51;8.36;;;;;;;3.49;77.50;101515.28;2014363;80;20415;-73
2022/01/12 10:27:19;;;;;;;12.46;7.39;;;;;;;3.34;77.56;101518.72;2014490;80;20343;-73
2022/01/12 10:30:30;;;;;;;11.35;7.88;;;;;;;3.21;78.41;101510.22;2014755;77;22337;-73
2022/01/12 10:33:34;;;;;;;10.25;7.30;;;;;;;3.12;78.63;101513.13;2016621;80;20369;-73
2022/01/12 10:36:39;;;;;;;9.38;6.97;;;;;;;3.05;78.82;101505.84;2016621;80;20394;-73
2022/01/12 10:39:44;;;;;;;9.55;6.25;;;;;;;2.99;78.88;101508.06;2017012;80;20716;-74
2022/01/12 10:42:48;;;;;;;6.50;5.81;;;;;;;2.90;78.92;101518.66;2016373;80;20301;-74
2022/01/12 10:45:50;;;;;;;7.68;6.89;;;;;;;2.90;79.05;101515.22;2014164;78;20410;-74
2022/01/12 10:48:55;;;;;;;8.21;6.34;;;;;;;2.91;79.25;101519.56;2015793;80;20427;-73
2022/01/12 10:51:57;;;;;;;9.95;7.13;;;;;;;2.91;79.00;101510.19;2015889;80;20354;-73
2022/01/12 10:55:05;;;;;;;9.64;7.40;;;;;;;2.92;78.25;101517.06;2016037;80;20406;-72
2022/01/12 10:58:18;;;;;;;8.84;6.28;;;;;;;2.91;78.06;101507.59;2014828;80;20402;-72
2022/01/12 11:01:24;;;;;;;10.05;7.05;;;;;;;2.88;78.62;101494.59;2015450;77;23535;-72
2022/01/12 11:04:26;;;;;;;8.44;6.70;;;;;;;2.89;79.25;101495.50;2014709;80;20354;-72
2022/01/12 11:07:30;;;;;;;7.74;6.45;;;;;;;2.91;79.49;101492.22;2015852;80;20324;-72
2022/01/12 11:10:33;;;;;;;9.35;6.38;;;;;;;2.97;79.63;101484.88;2016098;80;20850;-72
2022/01/12 11:13:36;;;;;;;10.50;6.97;;;;;;;2.96;78.88;101479.66;2016067;80;20313;-73
2022/01/12 11:16:39;;;;;;;7.70;5.94;;;;;;;2.90;77.17;101472.47;2014386;78;20457;-72
2022/01/12 11:20:03;;;;;;;8.32;6.07;;;;;;;2.97;77.46;101474.59;2016115;80;20329;-72
2022/01/12 11:23:08;;;;;;;6.68;5.55;;;;;;;3.06;77.72;101479.41;2016099;80;21013;-73
2022/01/12 11:26:23;;;;;;;6.50;5.50;;;;;;;3.13;76.79;101475.53;2016054;80;20309;-73
2022/01/12 11:29:34;;;;;;;6.59;5.79;;;;;;;3.22;76.07;101479.50;2015966;80;20305;-70
2022/01/12 11:32:36;;;;;;;6.64;5.54;;;;;;;3.28;75.71;101482.44;2014668;77;22394;-69
2022/01/12 11:35:45;;;;;;;6.84;5.59;;;;;;;3.35;74.89;101486.22;2015794;80;20472;-70
2022/01/12 11:39:01;;;;;;;5.78;5.16;;;;;;;3.42;75.28;101487.50;2015587;80;20952;-70
2022/01/12 11:42:04;;;;;;;5.72;4.99;;;;;;;3.45;74.95;101483.41;2015866;80;20172;-70
2022/01/12 11:45:19;;;;;;;7.94;5.16;;;;;;;3.49;73.71;101485.34;2015325;80;20342;-70
2022/01/12 11:48:30;;;;;;;5.76;4.39;;;;;;;3.57;73.26;101491.81;2019630;78;25774;-70
2022/01/12 11:51:38;;;;;;;5.85;4.61;;;;;;;3.66;73.52;101491.47;2017376;80;20375;-73
2022/01/12 11:54:45;;;;;;;7.19;4.70;;;;;;;3.68;73.67;101481.28;2017368;80;20336;-73
2022/01/12 11:57:52;;;;;;;5.19;4.60;;;;;;;3.73;73.91;101478.16;2016744;80;20354;-70
2022/01/12 12:00:54;;;;;;;4.68;4.22;;;;;;;3.75;74.35;101479.13;2014481;77;22621;-70
2022/01/12 12:03:59;;;;;;;5.70;4.45;;;;;;;3.79;74.51;101473.38;2014834;80;20331;-70
2022/01/12 12:07:08;;;;;;;5.93;4.82;;;;;;;3.81;74.49;101469.22;2016628;80;20390;-70
2022/01/12 12:10:15;;;;;;;5.01;4.06;;;;;;;3.86;72.81;101465.19;2016405;80;21102;-70
2022/01/12 12:13:21;;;;;;;4.78;4.28;;;;;;;3.95;73.94;101464.84;2017414;80;20411;-70
2022/01/12 12:16:24;;;;;;;5.71;4.34;;;;;;;4.02;73.47;101466.94;2015267;77;20427;-70
2022/01/12 12:19:28;;;;;;;4.82;4.11;;;;;;;4.06;72.73;101461.16;2016446;80;20435;-70
2022/01/12 12:22:33;;;;;;;5.04;4.26;;;;;;;4.12;73.06;101451.19;2017402;80;20409;-70
2022/01/12 12:25:38;;;;;;;4.05;3.61;;;;;;;4.22;72.60;101444.88;2016922;80;20321;-70
2022/01/12 12:28:44;;;;;;;4.40;3.99;;;;;;;4.30;72.44;101437.56;2014235;80;20348;-70
2022/01/12 12:31:48;;;;;;;4.63;3.85;;;;;;;4.35;72.21;101436.16;2015899;77;21520;-70
2022/01/12 12:35:00;;;;;;;4.24;3.81;;;;;;;4.35;70.41;101431.00;2016320;80;20328;-70
2022/01/12 12:38:08;;;;;;;3.92;3.56;;;;;;;4.38;70.16;101433.75;2017288;80;20374;-70
2022/01/12 12:41:11;;;;;;;5.57;4.21;;;;;;;4.41;70.68;101432.22;2017019;80;20251;-70
2022/01/12 12:44:26;;;;;;;3.65;3.35;;;;;;;4.45;70.77;101416.13;2016756;80;20217;-70
2022/01/12 12:47:28;;;;;;;6.72;4.04;;;;;;;4.50;70.51;101412.13;2015520;77;21528;-70
2022/01/12 12:50:32;;;;;;;5.24;4.51;;;;;;;4.51;70.36;101413.91;2015846;80;20840;-70
2022/01/12 12:53:37;;;;;;;5.57;4.38;;;;;;;4.53;69.70;101409.72;2017359;80;20329;-70
2022/01/12 12:56:42;;;;;;;7.39;4.74;;;;;;;4.58;70.38;101409.06;2016220;80;20301;-70
2022/01/12 12:59:45;;;;;;;4.35;3.94;;;;;;;4.62;70.92;101409.28;2016441;80;20337;-70
2022/01/12 13:02:52;;;;;;;6.50;4.49;;;;;;;4.63;70.34;101411.06;2013168;77;21050;-70
2022/01/12 13:05:54;;;;;;;6.40;4.49;;;;;;;4.66;69.45;101415.47;2015971;80;20406;-70
2022/01/12 13:09:03;;;;;;;6.04;4.36;;;;;;;4.70;69.53;101414.84;2016320;80;20321;-70
2022/01/12 13:12:06;;;;;;;7.59;4.19;;;;;;;4.70;70.08;101415.75;2017995;80;20325;-70
2022/01/12 13:15:13;;;;;;;4.56;4.00;;;;;;;4.71;68.81;101414.94;2015143;80;20209;-70
2022/01/12 13:18:23;;;;;;;6.55;4.18;;;;;;;4.77;68.64;101422.06;2016605;77;21229;-70
2022/01/12 13:21:26;;;;;;;4.70;3.94;;;;;;;4.84;68.20;101419.00;2015020;80;20317;-70
2022/01/12 13:24:28;;;;;;;4.39;3.44;;;;;;;4.91;67.66;101428.81;2014516;80;20367;-70
2022/01/12 13:27:32;;;;;;;4.41;3.56;;;;;;;4.94;67.61;101420.34;2014821;80;20935;-70
2022/01/12 13:30:47;;;;;;;5.75;3.51;;;;;;;4.98;67.12;101422.28;2013940;78;20774;-70
2022/01/12 13:33:56;;;;;;;3.79;3.24;;;;;;;5.01;68.50;101425.88;2015572;80;20529;-71
2022/01/12 13:36:59;;;;;;;3.79;3.15;;;;;;;5.01;68.80;101425.00;2014712;80;20359;-71
2022/01/12 13:40:13;;;;;;;6.72;3.45;;;;;;;5.00;68.12;101424.13;2014210;80;20382;-70
2022/01/12 13:43:19;;;;;;;3.78;3.35;;;;;;;5.00;68.58;101423.22;2014690;80;20339;-70
2022/01/12 13:46:33;;;;;;;5.18;2.91;;;;;;;5.00;68.52;101423.22;2013444;78;20364;-71
2022/01/12 13:49:37;;;;;;;4.96;3.50;;;;;;;5.00;68.17;101418.09;2015352;80;20386;-70
2022/01/12 13:52:39;;;;;;;3.65;3.35;;;;;;;5.02;67.94;101426.75;2015762;80;20444;-71
2022/01/12 13:55:51;;;;;;;4.41;3.84;;;;;;;4.98;68.73;101425.72;2016502;80;20920;-71
2022/01/12 13:58:57;;;;;;;4.20;3.31;;;;;;;4.95;68.93;101423.00;2016959;80;20413;-70
2022/01/12 14:02:00;;;;;;;4.65;3.33;;;;;;;4.90;69.00;101424.47;2016007;77;30060;-71
2022/01/12 14:05:08;;;;;;;4.89;3.69;;;;;;;4.88;68.88;101432.94;2016061;80;20949;-71
2022/01/12 14:08:15;;;;;;;3.66;3.11;;;;;;;4.87;68.60;101432.03;2016459;80;20336;-71
2022/01/12 14:11:18;;;;;;;7.63;3.15;;;;;;;4.83;67.59;101428.41;2016529;80;20355;-71
2022/01/12 14:14:22;;;;;;;4.63;2.97;;;;;;;4.80;67.96;101432.50;2012746;80;20746;-73
2022/01/12 14:17:39;;;;;;;3.54;3.22;;;;;;;4.75;68.18;101437.44;2014674;80;20839;-73
2022/01/12 14:20:44;;;;;;;3.54;3.05;;;;;;;4.73;67.56;101444.19;2013918;80;20322;-73
2022/01/12 14:23:48;;;;;;;4.45;3.28;;;;;;;4.72;67.60;101455.28;2016552;80;20305;-73
2022/01/12 14:26:51;;;;;;;3.72;3.20;;;;;;;4.69;68.01;101450.00;2014872;80;20382;-73
2022/01/12 14:29:54;;;;;;;3.76;2.88;;;;;;;4.64;68.53;101455.69;2015748;80;20362;-73
2022/01/12 14:32:56;;;;;;;3.79;3.14;;;;;;;4.61;69.02;101453.84;2015190;78;20341;-73
2022/01/12 14:35:59;;;;;;;4.00;2.72;;;;;;;4.57;68.88;101456.19;2015048;80;20343;-71
2022/01/12 14:39:02;;;;;;;4.01;2.63;;;;;;;4.51;69.19;101449.03;2015975;80;20339;-70
2022/01/12 14:42:06;;;;;;;3.92;2.70;;;;;;;4.48;69.54;101446.25;2016869;80;21038;-71
2022/01/12 14:45:12;;;;;;;3.33;2.72;;;;;;;4.42;69.50;101438.22;2015133;80;20331;-71
2022/01/12 14:48:16;;;;;;;5.41;3.71;;;;;;;4.41;68.97;101439.03;2016064;77;22087;-71
2022/01/12 14:51:21;;;;;;;3.95;3.34;;;;;;;4.37;69.23;101439.69;2017103;80;20297;-70
2022/01/12 14:54:23;;;;;;;4.19;3.56;;;;;;;4.32;69.50;101441.13;2016600;80;20325;-71
2022/01/12 14:57:26;;;;;;;3.65;2.65;;;;;;;4.29;69.62;101436.69;2015883;80;20398;-71
2022/01/12 15:00:34;;;;;;;3.64;3.16;;;;;;;4.25;69.11;101443.34;2015128;77;20973;-71
2022/01/12 15:03:37;;;;;;;2.91;2.61;;;;;;;4.23;69.39;101444.09;2017020;80;20314;-71
2022/01/12 15:06:40;;;;;;;2.58;2.17;;;;;;;4.17;69.49;101439.50;2016432;80;20171;-70
2022/01/12 15:09:44;;;;;;;3.69;1.83;;;;;;;4.13;69.11;101442.72;2016413;80;21059;-71
2022/01/12 15:12:50;;;;;;;3.41;2.26;;;;;;;4.10;69.17;101439.94;2017011;80;20833;-71
2022/01/12 15:15:56;;;;;;;3.58;2.10;;;;;;;4.06;69.05;101442.28;2015661;77;22726;-70
2022/01/12 15:18:59;;;;;;;2.96;2.09;;;;;;;4.02;68.95;101438.66;2017546;80;20333;-70
2022/01/12 15:22:02;;;;;;;2.29;2.09;;;;;;;3.95;69.17;101434.00;2017639;80;20338;-70
2022/01/12 15:25:05;;;;;;;2.46;1.69;;;;;;;3.89;69.15;101442.25;2016845;80;20455;-71
2022/01/12 15:28:08;;;;;;;4.06;2.10;;;;;;;3.82;69.59;101436.69;2017072;80;20313;-71